Time;durP1;ratioP1;P1;durP2;ratioP2;P2;SDS_P1;SDS_P2;PMS_P1;PMS_P2;Temp;Humidity;BMP_temperature;BMP_pressure;BME280_temperature;BME280_humidity;BME280_pressure;Samples;Min_cycle;Max_cycle;Signal;HPM_P1;HPM_P2
2023/02/11 00:02:57;;;;;;;38.40;22.30;;;6.70;99.90;;;;;;2615955;54;20171;-73
2023/02/11 00:08:45;;;;;;;41.23;27.03;;;6.70;99.90;;;;;;2616850;54;20117;-73
2023/02/11 00:14:36;;;;;;;38.60;23.03;;;6.70;99.90;;;;;;2616786;54;20526;-73
2023/02/11 00:20:24;;;;;;;42.90;26.33;;;6.70;99.90;;;;;;2616520;54;20395;-74
2023/02/11 00:26:24;;;;;;;38.03;24.57;;;6.60;99.90;;;;;;2616330;54;20334;-72
2023/02/11 00:32:11;;;;;;;36.93;24.17;;;6.70;99.90;;;;;;2617752;31;20843;-73
2023/02/11 00:41:46;;;;;;;34.77;23.67;;;6.70;99.90;;;;;;2616451;54;20375;-75
2023/02/11 00:47:34;;;;;;;42.33;23.73;;;6.80;99.90;;;;;;2616971;46;20407;-73
2023/02/11 00:53:22;;;;;;;38.53;25.70;;;6.70;99.90;;;;;;2616971;39;20741;-73
2023/02/11 00:59:10;;;;;;;39.33;26.10;;;6.70;99.90;;;;;;2616713;54;20644;-73
2023/02/11 01:05:01;;;;;;;38.60;24.30;;;6.80;99.90;;;;;;2616663;54;20118;-73
2023/02/11 01:17:10;;;;;;;32.13;22.07;;;6.80;99.90;;;;;;2616907;54;20383;-73
2023/02/11 01:22:57;;;;;;;39.40;22.97;;;6.80;99.90;;;;;;2616518;54;20387;-73
2023/02/11 01:28:45;;;;;;;33.23;23.20;;;6.80;99.90;;;;;;2616714;54;20247;-74
2023/02/11 01:34:33;;;;;;;34.23;24.40;;;6.80;99.90;;;;;;2617175;39;20663;-73
2023/02/11 01:37:15;;;;;;;31.47;21.47;;;6.70;99.90;;;;;;2616763;54;20411;-72
2023/02/11 01:39:40;;;;;;;29.30;22.10;;;6.80;99.90;;;;;;2616421;54;20147;-73
2023/02/11 01:58:43;;;;;;;26.80;19.90;;;6.80;99.90;;;;;;2616349;54;20483;-74
2023/02/11 02:04:37;;;;;;;33.23;25.13;;;6.80;99.90;;;;;;2616999;54;20392;-75
2023/02/11 02:10:26;;;;;;;28.60;18.07;;;6.70;99.90;;;;;;2616390;54;20391;-74
2023/02/11 02:16:18;;;;;;;42.30;26.47;;;6.70;99.90;;;;;;2616636;54;20393;-74
2023/02/11 02:29:08;;;;;;;31.90;23.43;;;6.50;99.90;;;;;;2616428;54;20374;-75
2023/02/11 02:44:49;;;;;;;35.50;20.20;;;6.50;99.90;;;;;;2616811;54;20403;-74
2023/02/11 02:50:37;;;;;;;33.70;23.20;;;6.50;99.90;;;;;;2616662;47;20446;-74
2023/02/11 02:56:32;;;;;;;38.63;21.87;;;6.50;99.90;;;;;;2616650;54;20118;-74
2023/02/11 03:19:30;;;;;;;45.47;25.40;;;6.50;99.90;;;;;;2615326;54;20422;-75
2023/02/11 03:22:33;;;;;;;34.37;21.10;;;6.40;99.90;;;;;;2615498;39;20879;-74
2023/02/11 03:25:00;;;;;;;36.40;21.07;;;6.40;99.90;;;;;;2615005;54;20429;-74
2023/02/11 03:37:31;;;;;;;31.27;20.57;;;6.40;99.90;;;;;;2613486;54;20378;-72
2023/02/11 03:46:45;;;;;;;30.80;21.13;;;6.30;99.90;;;;;;2614385;54;20403;-71
2023/02/11 03:52:35;;;;;;;39.83;24.90;;;6.30;99.90;;;;;;2615725;54;20411;-72
2023/02/11 03:58:23;;;;;;;35.53;24.90;;;6.20;99.90;;;;;;2616352;54;20382;-74
2023/02/11 04:04:11;;;;;;;43.87;23.20;;;6.00;99.90;;;;;;2617130;54;20386;-74
2023/02/11 04:09:59;;;;;;;43.00;24.63;;;5.80;99.90;;;;;;2617084;54;20135;-74
2023/02/11 04:15:47;;;;;;;43.67;25.50;;;5.80;99.90;;;;;;2617089;54;20130;-73
2023/02/11 04:21:34;;;;;;;52.53;25.60;;;5.70;99.90;;;;;;2617051;54;20119;-74
2023/02/11 04:27:22;;;;;;;47.80;26.47;;;5.60;99.90;;;;;;2617130;54;21026;-73
2023/02/11 04:33:10;;;;;;;38.80;25.83;;;5.70;99.90;;;;;;2617303;39;20596;-75
2023/02/11 04:38:58;;;;;;;48.80;27.00;;;5.70;99.90;;;;;;2617007;54;20118;-74
2023/02/11 04:42:02;;;;;;;40.73;23.63;;;5.70;99.90;;;;;;2617011;39;20454;-74
2023/02/11 04:44:28;;;;;;;53.10;27.70;;;5.60;99.90;;;;;;2616549;54;20147;-73
2023/02/11 04:50:16;;;;;;;38.10;20.50;;;5.70;99.90;;;;;;2616509;54;20154;-73
2023/02/11 04:56:04;;;;;;;49.20;27.13;;;5.70;99.90;;;;;;2617344;39;20600;-74
2023/02/11 05:01:51;;;;;;;40.33;21.93;;;5.70;99.90;;;;;;2617219;46;21468;-74
2023/02/11 05:07:39;;;;;;;45.13;19.13;;;5.70;99.90;;;;;;2616838;54;20210;-75
2023/02/11 05:13:28;;;;;;;45.30;25.03;;;5.70;99.90;;;;;;2616794;54;20403;-74
2023/02/11 05:19:16;;;;;;;39.17;25.30;;;5.70;99.90;;;;;;2616647;54;20350;-73
2023/02/11 05:25:04;;;;;;;42.97;24.20;;;5.70;99.90;;;;;;2617230;39;20522;-73
2023/02/11 05:30:52;;;;;;;53.60;27.53;;;5.70;99.90;;;;;;2616882;54;20383;-74
2023/02/11 05:36:39;;;;;;;60.50;28.63;;;5.70;99.90;;;;;;2617475;39;20590;-75
2023/02/11 05:46:36;;;;;;;51.27;30.77;;;5.80;99.90;;;;;;2616819;54;20415;-72
2023/02/11 05:52:24;;;;;;;48.30;29.90;;;5.90;99.90;;;;;;2617354;39;20971;-74
2023/02/11 05:58:11;;;;;;;54.13;31.13;;;5.90;99.90;;;;;;2616835;54;20394;-73
2023/02/11 06:03:59;;;;;;;55.10;31.10;;;5.90;99.90;;;;;;2616888;54;20154;-73
2023/02/11 06:09:47;;;;;;;53.63;28.63;;;5.90;99.90;;;;;;2617268;47;20623;-73
2023/02/11 06:15:34;;;;;;;58.37;35.23;;;5.90;99.90;;;;;;2617104;54;20243;-73
2023/02/11 06:21:22;;;;;;;56.77;30.77;;;5.90;99.90;;;;;;2616901;54;20126;-75
2023/02/11 06:27:10;;;;;;;49.17;26.63;;;6.00;99.90;;;;;;2616878;54;20118;-74
2023/02/11 06:32:58;;;;;;;65.87;33.10;;;5.90;99.90;;;;;;2617110;54;20130;-74
2023/02/11 06:38:46;;;;;;;64.03;37.20;;;5.90;99.90;;;;;;2616722;54;20902;-75
2023/02/11 06:42:04;;;;;;;59.07;25.43;;;6.00;99.90;;;;;;2616626;54;20417;-73
2023/02/11 06:44:29;;;;;;;75.73;34.43;;;6.00;99.90;;;;;;2616888;54;20469;-75
2023/02/11 06:50:17;;;;;;;64.33;35.03;;;6.00;99.90;;;;;;2616849;54;20135;-75
2023/02/11 06:56:08;;;;;;;67.80;37.43;;;6.00;99.90;;;;;;2617474;39;21332;-74
2023/02/11 07:01:56;;;;;;;69.50;34.00;;;6.00;99.90;;;;;;2617346;39;20768;-74
2023/02/11 07:07:43;;;;;;;89.83;40.23;;;6.10;99.90;;;;;;2616732;54;20118;-74
2023/02/11 07:13:31;;;;;;;61.67;33.67;;;6.10;99.90;;;;;;2617487;39;20200;-74
2023/02/11 07:19:18;;;;;;;73.70;40.57;;;6.10;99.90;;;;;;2617019;54;20122;-74
2023/02/11 07:25:06;;;;;;;64.70;37.63;;;6.10;99.90;;;;;;2617237;54;20150;-74
2023/02/11 07:30:55;;;;;;;65.23;38.87;;;6.10;99.90;;;;;;2617784;54;20948;-75
2023/02/11 07:36:43;;;;;;;67.77;37.37;;;6.10;99.90;;;;;;2617822;39;20482;-74
2023/02/11 07:46:41;;;;;;;74.33;36.93;;;6.10;99.90;;;;;;2617453;54;20433;-72
2023/02/11 07:52:30;;;;;;;77.03;39.17;;;6.10;99.90;;;;;;2617504;54;20402;-75
2023/02/11 07:58:17;;;;;;;88.73;37.40;;;6.20;99.90;;;;;;2617312;54;20937;-75
2023/02/11 08:04:05;;;;;;;71.87;36.20;;;6.20;99.90;;;;;;2617757;39;20527;-74
2023/02/11 08:09:54;;;;;;;79.83;40.60;;;6.20;99.90;;;;;;2617173;46;20154;-73
2023/02/11 08:15:42;;;;;;;83.33;40.20;;;6.30;99.90;;;;;;2617451;54;20403;-73
2023/02/11 08:21:29;;;;;;;86.27;36.90;;;6.30;99.90;;;;;;2617357;54;20142;-74
2023/02/11 08:27:17;;;;;;;68.17;33.70;;;6.40;99.90;;;;;;2617294;54;20142;-74
2023/02/11 08:33:05;;;;;;;82.97;36.87;;;6.40;99.90;;;;;;2617636;39;20650;-75
2023/02/11 08:38:54;;;;;;;65.00;32.57;;;6.40;99.90;;;;;;2617219;54;20239;-74
2023/02/11 08:45:20;;;;;;;61.93;29.57;;;6.50;99.90;;;;;;2617166;54;20952;-75
2023/02/11 08:48:07;;;;;;;60.93;35.27;;;6.50;99.90;;;;;;2617339;54;20407;-72
2023/02/11 08:53:56;;;;;;;74.20;34.40;;;6.60;99.90;;;;;;2617364;54;20383;-74
2023/02/11 08:59:43;;;;;;;77.23;36.73;;;6.70;99.90;;;;;;2617063;54;21259;-73
2023/02/11 09:05:31;;;;;;;71.67;31.10;;;6.80;99.90;;;;;;2617203;54;20162;-74
2023/02/11 09:11:23;;;;;;;77.90;39.97;;;6.80;99.90;;;;;;2617328;54;20194;-74
2023/02/11 09:17:11;;;;;;;73.90;38.07;;;6.90;99.90;;;;;;2617220;54;20395;-74
2023/02/11 09:22:59;;;;;;;67.10;34.53;;;7.00;99.90;;;;;;2617097;54;20126;-74
2023/02/11 09:28:47;;;;;;;65.07;35.73;;;7.00;99.90;;;;;;2616830;54;20170;-75
2023/02/11 09:34:35;;;;;;;73.73;37.90;;;7.10;99.90;;;;;;2617110;54;20376;-72
2023/02/11 09:40:23;;;;;;;63.90;34.13;;;7.10;99.90;;;;;;2616924;54;20165;-75
2023/02/11 09:43:35;;;;;;;69.97;35.03;;;7.10;99.90;;;;;;2616326;54;20390;-75
2023/02/11 09:46:03;;;;;;;68.70;37.00;;;7.20;99.90;;;;;;2617030;54;20159;-76
2023/02/11 09:58:22;;;;;;;87.20;37.40;;;7.30;99.90;;;;;;2615321;54;20408;-73
2023/02/11 10:11:00;;;;;;;65.97;31.97;;;7.40;99.90;;;;;;2615628;46;20530;-74
2023/02/11 10:34:03;;;;;;;69.60;33.27;;;7.60;99.90;;;;;;2615533;54;20374;-75
2023/02/11 10:39:50;;;;;;;61.53;35.93;;;7.70;99.90;;;;;;2615200;54;20380;-73
2023/02/11 10:48:58;;;;;;;88.03;37.17;;;7.70;99.90;;;;;;2615079;54;20421;-74
2023/02/11 10:55:04;;;;;;;62.07;34.70;;;7.70;99.90;;;;;;2615402;54;20222;-74
2023/02/11 11:00:54;;;;;;;69.70;38.90;;;7.80;99.90;;;;;;2615446;54;20494;-74
2023/02/11 11:06:41;;;;;;;67.70;39.33;;;7.60;99.90;;;;;;2615365;54;20375;-74
2023/02/11 11:19:07;;;;;;;75.07;34.90;;;7.90;99.90;;;;;;2616750;54;20954;-74
2023/02/11 11:24:56;;;;;;;69.97;35.73;;;7.90;99.90;;;;;;2616750;54;20423;-74
2023/02/11 11:30:44;;;;;;;83.07;40.33;;;7.90;99.90;;;;;;2617153;54;20902;-75
2023/02/11 11:36:38;;;;;;;87.87;41.63;;;7.90;99.90;;;;;;2616757;54;21197;-74
2023/02/11 11:42:30;;;;;;;69.90;35.77;;;8.00;99.90;;;;;;2616714;54;20391;-75
2023/02/11 11:51:44;;;;;;;69.87;32.43;;;8.00;99.90;;;;;;2616543;54;20428;-74
2023/02/11 11:57:37;;;;;;;68.80;40.67;;;8.20;99.90;;;;;;2616599;54;20414;-74
2023/02/11 12:03:34;;;;;;;71.23;39.57;;;8.10;99.90;;;;;;2617639;54;20434;-73
2023/02/11 12:29:38;;;;;;;67.03;33.67;;;8.10;99.90;;;;;;2615808;54;20351;-75
2023/02/11 12:39:44;;;;;;;65.97;34.37;;;8.20;99.90;;;;;;2615751;54;20407;-74
2023/02/11 12:46:09;;;;;;;79.87;40.70;;;8.40;99.90;;;;;;2615822;54;20371;-74
2023/02/11 12:58:32;;;;;;;71.33;32.63;;;8.40;99.90;;;;;;2615962;39;20800;-74
2023/02/11 13:04:25;;;;;;;86.83;39.13;;;8.40;99.90;;;;;;2615453;54;20398;-73
2023/02/11 13:10:13;;;;;;;88.47;40.23;;;8.40;99.90;;;;;;2615837;54;20374;-73
2023/02/11 13:42:02;;;;;;;102.87;50.87;;;8.60;99.90;;;;;;2617086;54;20383;-74
2023/02/11 13:51:41;;;;;;;72.77;38.97;;;8.50;99.90;;;;;;2616964;54;20383;-72
2023/02/11 13:57:32;;;;;;;78.80;41.10;;;8.60;99.90;;;;;;2616644;54;20420;-73
2023/02/11 14:09:45;;;;;;;71.83;37.10;;;8.60;99.90;;;;;;2616496;54;20391;-76
2023/02/11 14:15:39;;;;;;;69.63;36.87;;;8.60;99.90;;;;;;2617202;54;20210;-73
2023/02/11 14:21:31;;;;;;;69.30;39.60;;;9.00;99.90;;;;;;2616853;54;20379;-74
2023/02/11 14:27:29;;;;;;;62.50;36.97;;;9.40;99.90;;;;;;2616774;54;20994;-73
2023/02/11 14:46:24;;;;;;;58.93;36.10;;;9.40;99.90;;;;;;2616681;54;20395;-73
2023/02/11 14:56:45;;;;;;;82.23;44.90;;;9.40;99.90;;;;;;2615350;54;20929;-73
2023/02/11 15:02:35;;;;;;;57.77;30.50;;;9.20;99.90;;;;;;2615481;54;20432;-74
2023/02/11 15:08:23;;;;;;;69.80;45.40;;;9.40;99.90;;;;;;2615448;54;20434;-74
2023/02/11 15:25:13;;;;;;;54.00;32.23;;;9.30;99.90;;;;;;2615182;39;20826;-74
2023/02/11 15:31:04;;;;;;;48.20;29.13;;;9.30;99.90;;;;;;2616006;54;20932;-74
2023/02/11 15:36:52;;;;;;;52.90;33.40;;;9.30;99.90;;;;;;2617322;54;20399;-75
2023/02/11 15:52:25;;;;;;;56.03;31.57;;;9.20;99.90;;;;;;2617278;54;20538;-75
2023/02/11 15:58:12;;;;;;;58.03;32.97;;;9.10;99.90;;;;;;2617150;54;20382;-74
2023/02/11 16:04:01;;;;;;;76.93;39.33;;;9.10;99.90;;;;;;2617354;54;20146;-75
2023/02/11 16:16:32;;;;;;;48.03;29.80;;;8.90;99.90;;;;;;2617335;54;20383;-74
2023/02/11 16:22:29;;;;;;;48.40;32.63;;;8.80;99.90;;;;;;2617085;54;20949;-72
2023/02/11 16:28:16;;;;;;;49.23;32.77;;;8.70;99.90;;;;;;2616670;54;20371;-73
2023/02/11 16:40:20;;;;;;;65.60;37.40;;;8.60;99.90;;;;;;2617165;54;20539;-72
2023/02/11 16:46:10;;;;;;;63.27;33.30;;;8.60;99.90;;;;;;2616954;54;20419;-73
2023/02/11 16:52:00;;;;;;;68.87;36.50;;;8.50;99.90;;;;;;2617264;54;20403;-76
2023/02/11 16:57:48;;;;;;;52.37;31.00;;;8.50;99.90;;;;;;2617244;54;20395;-75
2023/02/11 17:03:39;;;;;;;56.20;34.10;;;8.50;99.90;;;;;;2617029;54;20138;-75
2023/02/11 17:09:27;;;;;;;56.37;34.27;;;8.40;99.90;;;;;;2616998;54;20376;-75
2023/02/11 17:15:15;;;;;;;58.80;35.20;;;8.50;99.90;;;;;;2617240;54;20380;-75
2023/02/11 17:21:06;;;;;;;62.03;35.60;;;8.50;99.90;;;;;;2617126;54;20170;-74
2023/02/11 17:26:53;;;;;;;38.53;19.10;;;8.40;99.90;;;;;;2617319;39;20916;-74
2023/02/11 17:32:41;;;;;;;62.43;40.67;;;8.50;99.90;;;;;;2617055;54;20387;-74
2023/02/11 17:38:29;;;;;;;62.20;35.67;;;8.50;99.90;;;;;;2616838;54;20126;-73
2023/02/11 17:44:16;;;;;;;56.77;30.83;;;8.50;99.90;;;;;;2617222;54;20133;-75
2023/02/11 17:47:25;;;;;;;69.47;33.53;;;8.50;99.90;;;;;;2616904;54;20938;-74
2023/02/11 17:49:51;;;;;;;60.93;32.53;;;8.50;99.90;;;;;;2616198;47;20201;-75
2023/02/11 17:55:39;;;;;;;72.60;39.53;;;8.50;99.90;;;;;;2616871;54;20226;-74
2023/02/11 18:01:28;;;;;;;64.20;38.87;;;8.50;99.90;;;;;;2616855;54;20418;-74
2023/02/11 18:07:16;;;;;;;81.07;45.33;;;8.50;99.90;;;;;;2616969;54;20367;-74
2023/02/11 18:13:04;;;;;;;70.93;36.53;;;8.50;99.90;;;;;;2616817;54;20969;-73
2023/02/11 18:18:52;;;;;;;68.90;33.00;;;8.50;99.90;;;;;;2616753;54;20134;-74
2023/02/11 18:24:40;;;;;;;67.33;40.83;;;8.50;99.90;;;;;;2616892;54;20246;-74
2023/02/11 18:30:32;;;;;;;61.47;34.33;;;8.50;99.90;;;;;;2617059;54;20395;-75
2023/02/11 18:36:20;;;;;;;68.73;37.97;;;8.40;99.90;;;;;;2616838;54;20375;-75
2023/02/11 18:42:09;;;;;;;57.97;34.13;;;8.40;99.90;;;;;;2616636;54;20379;-74
2023/02/11 18:51:59;;;;;;;73.17;35.97;;;8.40;99.90;;;;;;2616605;54;20392;-75
2023/02/11 18:57:46;;;;;;;69.67;36.90;;;8.30;99.90;;;;;;2616545;54;20523;-74
2023/02/11 19:03:34;;;;;;;72.57;41.33;;;8.40;99.90;;;;;;2616835;54;20226;-74
2023/02/11 19:09:22;;;;;;;69.67;39.20;;;8.30;99.90;;;;;;2616072;54;20371;-74
2023/02/11 19:15:09;;;;;;;67.87;38.43;;;8.40;99.90;;;;;;2616912;47;20608;-73
2023/02/11 19:20:57;;;;;;;81.73;42.90;;;8.30;99.90;;;;;;2616551;54;20122;-75
2023/02/11 19:26:47;;;;;;;76.67;41.07;;;8.30;99.90;;;;;;2616396;54;20138;-75
2023/02/11 19:32:34;;;;;;;73.93;41.87;;;8.30;99.90;;;;;;2616780;54;20398;-73
2023/02/11 19:38:22;;;;;;;86.27;44.93;;;8.30;99.90;;;;;;2616162;54;20119;-73
2023/02/11 19:44:12;;;;;;;60.77;40.67;;;8.20;99.90;;;;;;2616411;54;20118;-75
2023/02/11 19:47:26;;;;;;;72.77;39.97;;;8.10;99.90;;;;;;2616221;39;20819;-74
2023/02/11 19:49:52;;;;;;;69.10;39.50;;;8.10;99.90;;;;;;2615777;47;20463;-73
2023/02/11 19:55:40;;;;;;;70.83;41.47;;;8.10;99.90;;;;;;2616767;54;20444;-75
2023/02/11 20:01:28;;;;;;;73.43;42.80;;;8.10;99.90;;;;;;2616750;54;20644;-75
2023/02/11 20:07:15;;;;;;;73.00;41.63;;;8.10;99.90;;;;;;2616401;54;20138;-74
2023/02/11 20:13:03;;;;;;;74.53;39.47;;;8.10;99.90;;;;;;2616383;54;20665;-73
2023/02/11 20:16:07;;;;;;;74.47;40.20;;;8.10;99.90;;;;;;2615805;54;20416;-75
2023/02/11 20:18:33;;;;;;;82.87;44.10;;;8.10;99.90;;;;;;2616426;54;20162;-74
2023/02/11 20:24:22;;;;;;;72.60;42.30;;;8.10;99.90;;;;;;2617137;54;20362;-75
2023/02/11 20:30:10;;;;;;;83.50;40.57;;;8.20;99.90;;;;;;2617334;46;20390;-75
2023/02/11 20:42:26;;;;;;;71.23;42.77;;;8.30;99.90;;;;;;2615574;54;20403;-74
2023/02/11 20:51:59;;;;;;;101.00;53.10;;;8.20;99.90;;;;;;2615729;54;20370;-74
2023/02/11 20:57:46;;;;;;;78.13;41.60;;;8.20;99.90;;;;;;2615401;54;20374;-74
2023/02/11 21:03:33;;;;;;;83.83;42.87;;;8.20;99.90;;;;;;2615522;54;20368;-74
2023/02/11 21:09:23;;;;;;;84.23;45.03;;;8.20;99.90;;;;;;2615449;54;20151;-75
2023/02/11 21:15:12;;;;;;;76.83;44.57;;;8.30;99.90;;;;;;2615966;54;20384;-75
2023/02/11 21:20:59;;;;;;;78.63;43.23;;;8.30;99.90;;;;;;2616991;54;20400;-74
2023/02/11 21:26:47;;;;;;;78.40;40.50;;;8.20;99.90;;;;;;2616844;54;20226;-74
2023/02/11 21:32:35;;;;;;;77.17;42.67;;;8.20;99.90;;;;;;2616757;54;20148;-74
2023/02/11 21:38:24;;;;;;;77.30;39.37;;;8.20;99.90;;;;;;2616498;54;20234;-74
2023/02/11 21:44:12;;;;;;;77.23;42.40;;;8.20;99.90;;;;;;2616938;54;20936;-74
2023/02/11 21:47:27;;;;;;;72.50;41.40;;;8.20;99.90;;;;;;2616220;47;20423;-73
2023/02/11 21:49:52;;;;;;;68.03;40.73;;;8.20;99.90;;;;;;2616268;47;20171;-75
2023/02/11 21:55:40;;;;;;;73.67;38.57;;;8.20;99.90;;;;;;2617105;54;20123;-74
2023/02/11 22:01:31;;;;;;;71.10;41.23;;;8.20;99.90;;;;;;2617389;39;20503;-73
2023/02/11 22:07:21;;;;;;;64.07;41.10;;;8.20;99.90;;;;;;2616799;54;20464;-74
2023/02/11 22:13:09;;;;;;;66.03;37.23;;;8.20;99.90;;;;;;2616875;54;20448;-74
2023/02/11 22:19:01;;;;;;;76.20;38.70;;;8.20;99.90;;;;;;2616903;54;20391;-75
2023/02/11 22:24:49;;;;;;;67.03;37.43;;;8.20;99.90;;;;;;2616694;54;20411;-73
2023/02/11 22:30:36;;;;;;;72.67;38.33;;;8.20;99.90;;;;;;2617235;39;20688;-75
2023/02/11 22:36:30;;;;;;;71.87;38.47;;;8.20;99.90;;;;;;2616449;54;20660;-73
2023/02/11 22:42:18;;;;;;;64.53;34.67;;;8.20;99.90;;;;;;2617088;54;20945;-73
2023/02/11 22:51:59;;;;;;;62.33;37.77;;;8.20;99.90;;;;;;2616648;54;20365;-73
2023/02/11 22:57:47;;;;;;;68.23;39.27;;;8.10;99.90;;;;;;2616327;54;20383;-75
2023/02/11 23:03:35;;;;;;;72.40;38.30;;;8.20;99.90;;;;;;2616736;54;20122;-76
2023/02/11 23:09:22;;;;;;;64.23;36.00;;;8.20;99.90;;;;;;2617023;54;20130;-74
2023/02/11 23:15:10;;;;;;;69.40;40.40;;;8.10;99.90;;;;;;2616924;54;20138;-76
2023/02/11 23:27:12;;;;;;;64.50;36.97;;;8.10;99.90;;;;;;2616458;54;20499;-75
2023/02/11 23:33:00;;;;;;;64.77;38.03;;;8.10;99.90;;;;;;2616571;54;20945;-73
2023/02/11 23:38:48;;;;;;;56.17;37.27;;;8.00;99.90;;;;;;2616817;39;20598;-73
2023/02/11 23:44:37;;;;;;;64.60;40.47;;;8.00;99.90;;;;;;2616223;54;20944;-74
2023/02/11 23:47:27;;;;;;;69.53;38.97;;;8.00;99.90;;;;;;2615635;47;20427;-75
2023/02/11 23:49:53;;;;;;;66.37;37.90;;;8.10;99.90;;;;;;2616203;54;20841;-75
2023/02/11 23:55:42;;;;;;;67.53;38.57;;;8.10;99.90;;;;;;2616593;46;20133;-73
